Time;durP1;ratioP1;P1;durP2;ratioP2;P2;SDS_P1;SDS_P2;PMS_P1;PMS_P2;Temp;Humidity;BMP_temperature;BMP_pressure;BME280_temperature;BME280_humidity;BME280_pressure;Samples;Min_cycle;Max_cycle;Signal;HPM_P1;HPM_P2
2021/03/29 00:00:27;;;;;;;2.10;1.30;;;20.90;41.20;;;;;;5080425;28;20020;-51
2021/03/29 00:02:53;;;;;;;3.42;1.30;;;20.90;41.20;;;;;;5093539;28;20020;-51
2021/03/29 00:05:22;;;;;;;1.85;1.10;;;20.90;41.20;;;;;;5092786;28;20043;-48
2021/03/29 00:07:52;;;;;;;2.28;1.10;;;20.90;41.10;;;;;;5079337;28;20386;-51
2021/03/29 00:10:18;;;;;;;3.22;1.67;;;20.90;41.10;;;;;;5074173;28;20186;-48
2021/03/29 00:12:47;;;;;;;2.00;1.30;;;20.90;41.80;;;;;;5080775;28;20032;-52
2021/03/29 00:15:16;;;;;;;2.47;1.30;;;20.90;41.20;;;;;;5092620;28;20419;-49
2021/03/29 00:17:43;;;;;;;2.33;1.00;;;20.90;41.20;;;;;;5080447;28;20405;-50
2021/03/29 00:20:21;;;;;;;2.50;1.23;;;20.90;41.10;;;;;;5089701;28;20028;-49
2021/03/29 00:22:47;;;;;;;3.15;1.10;;;20.90;41.20;;;;;;5079436;28;20135;-48
2021/03/29 00:25:15;;;;;;;2.17;1.00;;;20.90;41.10;;;;;;5090553;28;20488;-49
2021/03/29 00:27:42;;;;;;;2.30;1.05;;;20.90;41.20;;;;;;5092449;28;20469;-52
2021/03/29 00:30:14;;;;;;;4.60;1.40;;;20.80;41.10;;;;;;5092079;28;20411;-53
2021/03/29 00:32:42;;;;;;;3.72;1.08;;;20.90;41.20;;;;;;5077519;28;20461;-48
2021/03/29 00:35:09;;;;;;;2.53;1.20;;;20.80;41.10;;;;;;5079989;28;20036;-51
2021/03/29 00:37:39;;;;;;;2.10;1.10;;;20.80;41.20;;;;;;5093114;28;20055;-51
2021/03/29 00:40:07;;;;;;;3.03;1.40;;;20.80;41.10;;;;;;5092527;28;20477;-50
2021/03/29 00:42:32;;;;;;;2.47;1.25;;;20.80;41.20;;;;;;5074920;28;20112;-47
2021/03/29 00:44:59;;;;;;;1.92;1.20;;;20.80;41.10;;;;;;5084571;28;20114;-48
2021/03/29 00:47:26;;;;;;;1.63;1.00;;;20.80;41.30;;;;;;5080720;28;20024;-45
2021/03/29 00:49:51;;;;;;;2.63;1.23;;;20.80;41.10;;;;;;5085615;28;20027;-52
2021/03/29 00:52:18;;;;;;;2.55;1.20;;;20.80;41.50;;;;;;5082169;28;20024;-48
2021/03/29 00:54:44;;;;;;;2.30;1.25;;;20.80;41.00;;;;;;5085979;28;20036;-48
2021/03/29 00:57:11;;;;;;;2.70;1.08;;;20.80;41.10;;;;;;5082674;28;20024;-47
2021/03/29 00:59:37;;;;;;;2.35;1.17;;;20.80;41.00;;;;;;5083046;28;20434;-52
2021/03/29 01:02:04;;;;;;;3.33;1.10;;;20.90;41.00;;;;;;5081172;28;20066;-53
2021/03/29 01:04:29;;;;;;;2.28;0.98;;;20.80;41.00;;;;;;5085342;28;20047;-48
2021/03/29 01:06:56;;;;;;;2.13;1.25;;;20.80;40.90;;;;;;5081750;28;20032;-48
2021/03/29 01:09:25;;;;;;;1.65;1.10;;;20.80;41.10;;;;;;5081661;28;20044;-47
2021/03/29 01:11:55;;;;;;;2.83;1.30;;;20.80;41.00;;;;;;5084885;28;20024;-48
2021/03/29 01:14:27;;;;;;;3.45;1.45;;;20.80;41.00;;;;;;5083106;28;20024;-47
2021/03/29 01:17:02;;;;;;;2.40;1.25;;;20.80;40.90;;;;;;5081941;28;20020;-47
2021/03/29 01:19:45;;;;;;;5.75;1.52;;;20.80;41.00;;;;;;5081329;28;20354;-52
2021/03/29 01:22:14;;;;;;;1.77;1.10;;;20.80;40.90;;;;;;5080866;28;20028;-52
2021/03/29 01:24:58;;;;;;;3.17;1.25;;;20.80;40.90;;;;;;5083231;28;20347;-52
2021/03/29 01:27:29;;;;;;;2.97;1.42;;;20.80;40.90;;;;;;5082127;28;20067;-53
2021/03/29 01:29:57;;;;;;;2.53;0.97;;;20.80;41.10;;;;;;5082862;28;20032;-55
2021/03/29 01:32:23;;;;;;;1.70;1.00;;;20.80;40.80;;;;;;5081881;28;20028;-51
2021/03/29 01:34:50;;;;;;;4.32;1.30;;;20.80;41.50;;;;;;5084243;28;20644;-55
2021/03/29 01:37:16;;;;;;;1.65;1.00;;;20.80;40.80;;;;;;5081692;28;20047;-46
2021/03/29 01:39:43;;;;;;;2.67;1.27;;;20.80;40.80;;;;;;5082583;28;20448;-51
2021/03/29 01:42:13;;;;;;;1.90;1.20;;;20.80;40.80;;;;;;5080112;28;20078;-49
2021/03/29 01:44:39;;;;;;;2.15;1.10;;;20.80;40.80;;;;;;5092035;28;20039;-47
2021/03/29 01:47:07;;;;;;;2.60;1.00;;;20.80;40.80;;;;;;5084436;28;20028;-53
2021/03/29 01:49:34;;;;;;;3.33;1.20;;;20.80;40.70;;;;;;5087593;28;20132;-47
2021/03/29 01:52:00;;;;;;;1.70;0.77;;;20.80;40.70;;;;;;5085645;28;20477;-49
2021/03/29 01:54:29;;;;;;;3.20;0.98;;;20.80;40.70;;;;;;5071201;28;20029;-50
2021/03/29 01:56:55;;;;;;;3.00;1.25;;;20.80;40.70;;;;;;5072101;28;20029;-48
2021/03/29 01:59:21;;;;;;;2.83;1.20;;;20.80;40.60;;;;;;5080953;28;20029;-48
2021/03/29 02:01:47;;;;;;;2.35;1.20;;;20.80;40.70;;;;;;5091701;28;20034;-48
2021/03/29 02:04:12;;;;;;;2.83;1.30;;;20.70;41.40;;;;;;5081350;28;20362;-47
2021/03/29 02:06:38;;;;;;;1.70;0.98;;;20.80;40.80;;;;;;5081624;28;20080;-46
2021/03/29 02:09:08;;;;;;;2.25;1.02;;;20.80;40.80;;;;;;5091279;28;20044;-46
2021/03/29 02:11:34;;;;;;;1.75;1.10;;;20.80;40.70;;;;;;5090954;28;20059;-49
2021/03/29 02:14:01;;;;;;;2.35;1.00;;;20.80;40.70;;;;;;5091707;28;20036;-47
2021/03/29 02:16:29;;;;;;;2.58;1.30;;;20.70;40.70;;;;;;5073415;28;20020;-47
2021/03/29 02:18:58;;;;;;;3.33;1.58;;;20.80;40.80;;;;;;5084011;28;20024;-48
2021/03/29 02:21:31;;;;;;;1.83;1.00;;;20.70;40.70;;;;;;5087990;28;20020;-47
2021/03/29 02:23:58;;;;;;;2.25;1.17;;;20.80;40.80;;;;;;5080233;28;20115;-48
2021/03/29 02:26:26;;;;;;;2.40;1.05;;;20.80;41.10;;;;;;5076618;28;20037;-47
2021/03/29 02:28:53;;;;;;;2.05;1.02;;;20.70;40.70;;;;;;5085112;28;20059;-45
2021/03/29 02:31:20;;;;;;;3.38;1.30;;;20.70;40.60;;;;;;5083313;28;20029;-49
2021/03/29 02:33:48;;;;;;;2.85;1.02;;;20.70;40.60;;;;;;5089345;28;20032;-49
2021/03/29 02:36:16;;;;;;;1.77;1.30;;;20.80;40.60;;;;;;5087188;28;20488;-48
2021/03/29 02:38:42;;;;;;;1.85;1.20;;;20.80;40.60;;;;;;5083749;28;20020;-49
2021/03/29 02:41:08;;;;;;;1.50;1.10;;;20.70;40.60;;;;;;5089598;28;20473;-53
2021/03/29 02:43:35;;;;;;;2.83;0.93;;;20.70;40.70;;;;;;5089885;28;20047;-49
2021/03/29 02:46:06;;;;;;;1.85;0.88;;;20.70;40.50;;;;;;5082621;28;20028;-50
2021/03/29 02:48:45;;;;;;;3.20;1.48;;;20.70;40.50;;;;;;5084430;28;20093;-47
2021/03/29 02:51:15;;;;;;;4.43;1.10;;;20.70;40.50;;;;;;5090423;28;20097;-50
2021/03/29 02:53:49;;;;;;;1.80;0.95;;;20.80;40.60;;;;;;5089252;28;20113;-49
2021/03/29 02:56:20;;;;;;;2.53;1.30;;;20.70;40.50;;;;;;5079907;28;20056;-49
2021/03/29 02:58:53;;;;;;;1.70;0.98;;;20.80;40.50;;;;;;5088016;28;20402;-51
2021/03/29 03:01:23;;;;;;;2.30;0.93;;;20.80;40.50;;;;;;5083057;28;20491;-49
2021/03/29 03:03:52;;;;;;;1.50;1.17;;;20.70;40.60;;;;;;5071364;28;20457;-51
2021/03/29 03:06:22;;;;;;;2.20;1.00;;;20.70;40.50;;;;;;5081297;28;20089;-55
2021/03/29 03:08:49;;;;;;;3.53;1.20;;;20.70;40.40;;;;;;5070864;28;20067;-51
2021/03/29 03:11:16;;;;;;;2.30;1.10;;;20.70;40.40;;;;;;5070542;28;20029;-52
2021/03/29 03:13:46;;;;;;;2.05;1.10;;;20.70;40.50;;;;;;5070916;28;20079;-49
2021/03/29 03:16:12;;;;;;;2.15;1.17;;;20.70;40.40;;;;;;5070109;28;20028;-54
2021/03/29 03:18:39;;;;;;;1.63;0.90;;;20.70;40.30;;;;;;5086645;28;20043;-50
2021/03/29 03:21:05;;;;;;;1.58;0.90;;;20.70;40.30;;;;;;5090702;28;20105;-52
2021/03/29 03:23:31;;;;;;;2.33;0.93;;;20.70;40.30;;;;;;5090325;28;20028;-48
2021/03/29 03:25:57;;;;;;;1.88;1.00;;;20.70;40.40;;;;;;5089389;28;20020;-48
2021/03/29 03:28:25;;;;;;;3.67;1.63;;;20.70;40.30;;;;;;5073416;28;20112;-47
2021/03/29 03:30:56;;;;;;;2.13;1.00;;;20.70;40.40;;;;;;5087202;28;20036;-49
2021/03/29 03:33:25;;;;;;;3.35;1.25;;;20.70;40.40;;;;;;5088386;28;20028;-53
2021/03/29 03:35:52;;;;;;;1.83;0.90;;;20.70;40.30;;;;;;5089666;28;20024;-49
2021/03/29 03:38:25;;;;;;;2.55;1.33;;;20.70;40.40;;;;;;5079828;28;20405;-45
2021/03/29 03:40:59;;;;;;;2.05;0.85;;;20.70;40.30;;;;;;5074788;28;20058;-47
2021/03/29 03:43:27;;;;;;;2.25;1.40;;;20.70;40.20;;;;;;5080039;28;20436;-47
2021/03/29 03:46:08;;;;;;;6.68;1.50;;;20.70;40.30;;;;;;5089971;28;20085;-47
2021/03/29 03:48:36;;;;;;;1.70;1.00;;;20.70;40.30;;;;;;5086453;28;20024;-50
2021/03/29 03:51:03;;;;;;;1.98;1.00;;;20.70;40.30;;;;;;5080724;28;20020;-50
2021/03/29 03:53:29;;;;;;;3.15;1.00;;;20.70;40.40;;;;;;5092921;28;20020;-50
2021/03/29 03:55:57;;;;;;;3.10;1.70;;;20.70;40.30;;;;;;5089686;28;20115;-49
2021/03/29 03:58:27;;;;;;;2.00;1.02;;;20.70;40.40;;;;;;5083994;28;20036;-47
2021/03/29 04:00:56;;;;;;;2.40;1.00;;;20.70;40.30;;;;;;5091792;28;20032;-48
2021/03/29 04:03:22;;;;;;;1.92;1.13;;;20.70;40.20;;;;;;5084113;28;20020;-50
2021/03/29 04:05:48;;;;;;;2.33;1.13;;;20.70;40.30;;;;;;5083310;28;20056;-51
2021/03/29 04:08:14;;;;;;;1.83;1.10;;;20.70;40.20;;;;;;5086504;28;20091;-53
2021/03/29 04:16:00;;;;;;;2.55;1.35;;;20.70;40.30;;;;;;5085327;28;20048;-46
2021/03/29 04:18:27;;;;;;;1.63;1.00;;;20.70;40.30;;;;;;5075563;28;20025;-49
2021/03/29 04:20:56;;;;;;;1.75;1.13;;;20.70;40.30;;;;;;5073977;28;20478;-50
2021/03/29 04:23:23;;;;;;;1.90;1.10;;;20.60;40.20;;;;;;5073419;28;20104;-51
2021/03/29 04:25:49;;;;;;;1.90;1.20;;;20.70;40.30;;;;;;5078614;28;20032;-48
2021/03/29 04:28:15;;;;;;;4.50;1.08;;;20.70;40.30;;;;;;5087611;28;20051;-48
2021/03/29 04:30:41;;;;;;;2.08;1.25;;;20.60;40.20;;;;;;5073487;28;20397;-48
2021/03/29 04:33:07;;;;;;;2.25;1.20;;;20.70;40.30;;;;;;5078903;28;20032;-50
2021/03/29 04:35:33;;;;;;;3.00;1.30;;;20.70;40.20;;;;;;5084169;28;20032;-49
2021/03/29 04:37:59;;;;;;;3.60;1.50;;;20.60;40.10;;;;;;5092358;28;20035;-53
2021/03/29 04:40:27;;;;;;;2.60;1.38;;;20.70;40.20;;;;;;5081785;28;20024;-53
2021/03/29 04:42:53;;;;;;;2.75;1.20;;;20.70;40.20;;;;;;5083905;28;20016;-49
2021/03/29 04:45:19;;;;;;;2.30;1.30;;;20.60;40.20;;;;;;5082343;28;20489;-50
2021/03/29 04:47:45;;;;;;;3.08;1.00;;;20.60;40.10;;;;;;5084050;28;20098;-52
2021/03/29 04:50:14;;;;;;;1.98;1.00;;;20.70;40.30;;;;;;5083062;28;20028;-54
2021/03/29 04:52:40;;;;;;;1.40;1.00;;;20.70;40.20;;;;;;5081337;28;20482;-49
2021/03/29 04:55:07;;;;;;;1.95;1.15;;;20.70;40.20;;;;;;5082077;28;20138;-53
2021/03/29 04:57:32;;;;;;;2.20;1.02;;;20.70;40.20;;;;;;5079421;28;20107;-48
2021/03/29 04:59:58;;;;;;;2.70;1.10;;;20.60;40.10;;;;;;5084632;28;20434;-50
2021/03/29 05:02:24;;;;;;;1.52;1.05;;;20.70;40.10;;;;;;5077897;28;20028;-52
2021/03/29 05:04:49;;;;;;;2.80;1.00;;;20.70;40.20;;;;;;5080849;28;20512;-49
2021/03/29 05:07:15;;;;;;;2.78;1.25;;;20.60;40.10;;;;;;5084939;28;20070;-50
2021/03/29 05:09:41;;;;;;;3.33;1.40;;;20.70;40.20;;;;;;5080470;28;20499;-52
2021/03/29 05:12:15;;;;;;;1.60;1.10;;;20.60;40.10;;;;;;5079066;28;20032;-50
2021/03/29 05:14:41;;;;;;;2.35;1.55;;;20.60;40.10;;;;;;5084010;28;20031;-47
2021/03/29 05:17:08;;;;;;;2.00;1.38;;;20.60;40.10;;;;;;5077041;28;20035;-49
2021/03/29 05:19:35;;;;;;;2.72;1.50;;;20.70;40.10;;;;;;5091451;28;20412;-49
2021/03/29 05:22:01;;;;;;;2.38;1.23;;;20.60;40.10;;;;;;5080626;28;20104;-51
2021/03/29 05:24:27;;;;;;;1.45;1.00;;;20.70;40.10;;;;;;5072062;28;20080;-52
2021/03/29 05:26:54;;;;;;;3.95;1.38;;;20.70;40.10;;;;;;5072446;28;20028;-46
2021/03/29 05:29:20;;;;;;;2.55;1.33;;;20.60;40.00;;;;;;5076187;28;20052;-52
2021/03/29 05:31:46;;;;;;;3.50;1.40;;;20.70;40.10;;;;;;5090484;28;20432;-50
2021/03/29 05:34:14;;;;;;;2.63;1.10;;;20.70;40.10;;;;;;5075221;28;20032;-50
2021/03/29 05:36:40;;;;;;;2.90;1.38;;;20.70;40.00;;;;;;5081350;28;20035;-47
2021/03/29 05:39:09;;;;;;;5.70;1.60;;;20.60;40.20;;;;;;5083699;28;20457;-52
2021/03/29 05:41:38;;;;;;;3.15;1.27;;;20.70;40.10;;;;;;5091068;28;20024;-46
2021/03/29 05:44:04;;;;;;;2.08;1.20;;;20.60;40.10;;;;;;5077120;28;20127;-52
2021/03/29 05:46:30;;;;;;;4.00;1.50;;;20.70;40.10;;;;;;5082512;28;20067;-49
2021/03/29 05:48:56;;;;;;;8.13;1.90;;;20.70;40.50;;;;;;5079356;28;20048;-49
2021/03/29 05:51:21;;;;;;;4.90;1.40;;;20.70;40.70;;;;;;5067907;28;20507;-51
2021/03/29 05:53:47;;;;;;;3.92;1.42;;;20.70;40.90;;;;;;5080851;28;20135;-50
2021/03/29 05:56:14;;;;;;;10.85;1.35;;;20.70;41.00;;;;;;5071515;28;20036;-53
2021/03/29 05:58:54;;;;;;;4.93;1.50;;;20.80;41.30;;;;;;5071926;28;20024;-50
2021/03/29 06:01:20;;;;;;;8.70;1.90;;;20.70;41.50;;;;;;5073579;28;20032;-48
2021/03/29 06:03:46;;;;;;;8.80;1.85;;;20.80;41.80;;;;;;5083714;28;20496;-51
2021/03/29 06:06:11;;;;;;;4.78;1.45;;;20.80;42.10;;;;;;5086763;28;20031;-52
2021/03/29 06:08:45;;;;;;;6.72;1.67;;;20.80;42.10;;;;;;5086784;28;20048;-46
2021/03/29 06:11:25;;;;;;;9.20;1.50;;;20.80;42.60;;;;;;5091259;28;20094;-50
2021/03/29 06:14:16;;;;;;;3.33;1.50;;;20.80;42.50;;;;;;5083367;28;20039;-49
2021/03/29 06:17:01;;;;;;;10.77;2.20;;;20.80;42.20;;;;;;5075975;28;20057;-52
2021/03/29 06:20:03;;;;;;;12.55;3.50;;;20.80;42.70;;;;;;5079971;28;20123;-50
2021/03/29 06:22:31;;;;;;;10.82;2.40;;;20.80;42.30;;;;;;5086309;28;20031;-50
2021/03/29 06:25:08;;;;;;;6.40;1.75;;;20.80;42.30;;;;;;5086201;28;20054;-52
2021/03/29 06:27:47;;;;;;;9.73;1.42;;;20.70;42.20;;;;;;5070878;28;20027;-50
2021/03/29 06:30:17;;;;;;;5.43;1.33;;;20.70;42.20;;;;;;5076892;28;20039;-50
2021/03/29 06:32:55;;;;;;;10.68;1.58;;;20.80;42.40;;;;;;5072441;28;20028;-51
2021/03/29 06:35:23;;;;;;;4.30;1.35;;;20.80;42.20;;;;;;5079292;28;20028;-46
2021/03/29 06:37:49;;;;;;;7.32;1.60;;;20.80;42.10;;;;;;5088452;28;20024;-47
2021/03/29 06:40:15;;;;;;;5.53;1.85;;;20.80;42.10;;;;;;5085122;28;20024;-51
2021/03/29 06:42:41;;;;;;;6.45;1.38;;;20.70;42.00;;;;;;5078925;28;20493;-47
2021/03/29 06:45:18;;;;;;;4.75;1.40;;;20.70;42.00;;;;;;5074613;28;20110;-49
2021/03/29 06:47:44;;;;;;;8.45;2.15;;;20.80;42.00;;;;;;5072412;28;20028;-47
2021/03/29 06:50:22;;;;;;;7.75;2.25;;;20.70;41.90;;;;;;5076827;28;20487;-50
2021/03/29 06:52:49;;;;;;;4.43;1.88;;;20.70;41.90;;;;;;5084986;28;20028;-49
2021/03/29 06:55:18;;;;;;;3.22;1.35;;;20.70;41.80;;;;;;5089388;28;20050;-50
2021/03/29 06:57:44;;;;;;;5.00;1.67;;;20.70;41.80;;;;;;5090670;28;20024;-50
2021/03/29 07:00:26;;;;;;;6.55;1.60;;;20.70;41.80;;;;;;5084716;28;20465;-49
2021/03/29 07:02:52;;;;;;;5.90;1.45;;;20.70;41.80;;;;;;5071121;28;20432;-52
2021/03/29 07:05:18;;;;;;;4.15;1.63;;;20.70;41.80;;;;;;5069603;28;20037;-50
2021/03/29 07:07:44;;;;;;;6.75;1.50;;;20.70;41.70;;;;;;5079193;28;20045;-49
2021/03/29 07:10:11;;;;;;;3.55;1.98;;;20.70;41.70;;;;;;5088727;28;20477;-49
2021/03/29 07:12:39;;;;;;;4.75;1.30;;;20.70;41.70;;;;;;5076452;28;20032;-46
2021/03/29 07:15:10;;;;;;;3.63;1.70;;;20.70;41.60;;;;;;5084972;28;20094;-49
2021/03/29 07:17:39;;;;;;;3.05;1.35;;;20.70;41.60;;;;;;5083807;28;20101;-48
2021/03/29 07:20:07;;;;;;;4.50;1.50;;;20.70;41.60;;;;;;5089849;28;20049;-54
2021/03/29 07:22:36;;;;;;;6.30;1.70;;;20.80;41.60;;;;;;5080853;28;20076;-47
2021/03/29 07:25:08;;;;;;;4.47;1.60;;;20.80;41.70;;;;;;5083674;28;20023;-50
2021/03/29 07:27:40;;;;;;;4.13;1.25;;;20.70;41.60;;;;;;5085263;28;20043;-48
2021/03/29 07:30:08;;;;;;;8.27;1.80;;;20.70;41.60;;;;;;5084112;28;20024;-50
2021/03/29 07:32:38;;;;;;;3.03;1.38;;;20.70;41.60;;;;;;5077044;28;20619;-47
2021/03/29 07:35:06;;;;;;;3.70;1.38;;;20.70;41.60;;;;;;5078612;28;20464;-47
2021/03/29 07:37:43;;;;;;;3.17;1.35;;;20.70;41.60;;;;;;5076664;28;20381;-54
2021/03/29 07:40:36;;;;;;;2.72;1.55;;;20.70;41.50;;;;;;5086709;28;20032;-49
2021/03/29 07:43:09;;;;;;;2.47;1.30;;;20.70;41.70;;;;;;5074462;28;20120;-49
2021/03/29 07:45:34;;;;;;;4.93;1.90;;;20.80;41.60;;;;;;5082530;28;20031;-51
2021/03/29 07:48:00;;;;;;;4.63;1.52;;;20.70;41.60;;;;;;5074035;28;20037;-50
2021/03/29 07:50:29;;;;;;;4.18;1.27;;;20.70;41.60;;;;;;5073912;28;20037;-48
2021/03/29 07:52:59;;;;;;;1.83;1.25;;;20.70;41.60;;;;;;5092318;28;20095;-50
2021/03/29 07:55:38;;;;;;;4.65;1.80;;;20.70;41.70;;;;;;5091373;28;20036;-48
2021/03/29 07:58:09;;;;;;;1.85;1.27;;;20.70;41.70;;;;;;5088354;28;20131;-50
2021/03/29 08:00:34;;;;;;;2.78;1.38;;;20.70;41.70;;;;;;5082779;28;20051;-49
2021/03/29 08:03:12;;;;;;;2.35;1.38;;;20.70;41.70;;;;;;5082338;28;20058;-48
2021/03/29 08:05:51;;;;;;;2.67;1.60;;;20.70;41.70;;;;;;5075757;28;20032;-52
2021/03/29 08:08:26;;;;;;;3.47;1.33;;;20.70;41.70;;;;;;5092538;28;20508;-53
2021/03/29 08:11:14;;;;;;;2.72;1.42;;;20.70;41.70;;;;;;5083551;28;20028;-52
2021/03/29 08:13:56;;;;;;;2.33;1.35;;;20.80;41.70;;;;;;5073680;28;20028;-52
2021/03/29 08:16:22;;;;;;;3.30;1.48;;;20.80;41.70;;;;;;5078762;28;20021;-49
2021/03/29 08:19:17;;;;;;;3.47;1.55;;;20.80;41.90;;;;;;5082140;28;20032;-51
2021/03/29 08:22:07;;;;;;;5.68;1.65;;;20.80;41.70;;;;;;5073876;28;20382;-51
2021/03/29 08:24:40;;;;;;;4.28;1.42;;;20.80;41.70;;;;;;5082783;28;20032;-51
2021/03/29 08:27:19;;;;;;;4.05;1.52;;;20.80;41.80;;;;;;5076979;28;20471;-49
2021/03/29 08:29:50;;;;;;;5.03;1.58;;;20.80;41.80;;;;;;5087134;28;20028;-49
2021/03/29 08:32:18;;;;;;;5.32;2.45;;;20.80;42.50;;;;;;5091818;28;20028;-50
2021/03/29 08:34:55;;;;;;;2.40;1.60;;;20.80;41.90;;;;;;5078785;28;20062;-50
2021/03/29 08:37:23;;;;;;;2.75;1.50;;;20.80;41.90;;;;;;5075759;28;20082;-47
2021/03/29 08:39:51;;;;;;;2.88;1.70;;;20.80;42.20;;;;;;5072436;28;20378;-44
2021/03/29 08:42:19;;;;;;;2.38;1.60;;;20.80;42.20;;;;;;5075639;28;20016;-50
2021/03/29 08:44:48;;;;;;;2.67;1.60;;;20.80;42.20;;;;;;5073923;28;20029;-48
2021/03/29 08:47:19;;;;;;;2.58;1.50;;;20.80;42.20;;;;;;5084971;28;20024;-49
2021/03/29 08:49:49;;;;;;;5.75;1.67;;;20.80;42.20;;;;;;5075298;28;20385;-47
2021/03/29 08:52:15;;;;;;;2.55;1.60;;;20.80;42.20;;;;;;5072983;28;20363;-48
2021/03/29 08:54:52;;;;;;;5.85;1.95;;;20.80;42.10;;;;;;5081009;28;20039;-48
2021/03/29 08:57:21;;;;;;;3.55;1.80;;;20.80;42.10;;;;;;5090329;28;20110;-51
2021/03/29 08:59:51;;;;;;;4.95;1.70;;;20.80;42.10;;;;;;5085549;28;20090;-47
2021/03/29 09:02:17;;;;;;;3.38;2.25;;;20.80;42.00;;;;;;5079811;28;20029;-47
2021/03/29 09:05:00;;;;;;;2.88;1.80;;;20.80;42.00;;;;;;5089328;28;20031;-49
2021/03/29 09:07:38;;;;;;;2.38;1.40;;;20.80;42.10;;;;;;5073068;28;20029;-51
2021/03/29 09:10:19;;;;;;;2.13;1.67;;;20.80;42.00;;;;;;5073377;28;20041;-47
2021/03/29 09:12:51;;;;;;;3.08;1.45;;;20.80;42.00;;;;;;5081938;28;20107;-51
2021/03/29 09:15:17;;;;;;;;;;;20.80;42.00;;;;;;5082847;28;20033;-50
2021/03/29 09:17:43;;;;;;;2.40;1.60;;;20.80;42.00;;;;;;5086248;28;20409;-46
2021/03/29 09:20:21;;;;;;;3.95;1.70;;;20.80;42.00;;;;;;5085375;28;20046;-47
2021/03/29 09:22:47;;;;;;;3.20;1.40;;;20.80;41.90;;;;;;5088780;28;20540;-46
2021/03/29 09:25:22;;;;;;;2.60;1.35;;;20.80;41.90;;;;;;5091996;28;20028;-46
2021/03/29 09:27:55;;;;;;;2.88;1.70;;;20.80;41.90;;;;;;5082405;28;20469;-46
2021/03/29 09:30:21;;;;;;;3.53;2.17;;;20.80;41.80;;;;;;5084461;28;20461;-53
2021/03/29 09:32:46;;;;;;;3.67;1.42;;;20.90;41.90;;;;;;5092861;28;20050;-54
2021/03/29 09:35:12;;;;;;;2.35;1.40;;;20.80;41.80;;;;;;5092552;28;20047;-47
2021/03/29 09:37:47;;;;;;;3.40;1.48;;;20.80;41.80;;;;;;5087133;28;20382;-48
2021/03/29 09:40:13;;;;;;;3.30;1.77;;;20.80;41.80;;;;;;5074146;28;20036;-46
2021/03/29 09:42:54;;;;;;;4.95;2.17;;;20.80;41.70;;;;;;5070440;28;20102;-46
2021/03/29 09:45:28;;;;;;;4.28;1.67;;;20.80;41.80;;;;;;5071018;28;20021;-46
2021/03/29 09:48:08;;;;;;;2.55;1.58;;;20.80;41.70;;;;;;5076211;28;20115;-48
2021/03/29 09:50:42;;;;;;;3.40;1.45;;;20.80;41.80;;;;;;5073191;28;20220;-48
2021/03/29 09:53:23;;;;;;;2.92;1.45;;;20.80;41.70;;;;;;5081523;28;20037;-47
2021/03/29 09:55:51;;;;;;;3.05;1.38;;;20.80;41.70;;;;;;5072128;28;20032;-47
2021/03/29 09:58:19;;;;;;;3.25;1.73;;;20.80;41.70;;;;;;5074569;28;20107;-50
2021/03/29 10:00:45;;;;;;;4.07;1.70;;;20.80;41.70;;;;;;5072090;28;20039;-48
2021/03/29 10:03:16;;;;;;;1.77;1.30;;;20.90;41.70;;;;;;5084885;28;20024;-46
2021/03/29 10:05:42;;;;;;;3.00;1.70;;;20.80;41.70;;;;;;5089467;28;20028;-46
2021/03/29 10:08:07;;;;;;;3.17;1.70;;;20.80;41.70;;;;;;5089506;28;20049;-47
2021/03/29 10:10:33;;;;;;;2.38;1.25;;;20.80;41.70;;;;;;5079232;28;20028;-47
2021/03/29 10:13:05;;;;;;;2.60;1.55;;;20.90;41.80;;;;;;5071965;28;20492;-48
2021/03/29 10:15:35;;;;;;;2.35;1.48;;;20.90;41.70;;;;;;5074881;28;20040;-46
2021/03/29 10:18:14;;;;;;;2.38;1.50;;;20.90;41.70;;;;;;5086452;28;20436;-47
2021/03/29 10:20:44;;;;;;;3.40;1.45;;;20.90;41.70;;;;;;5087281;28;20032;-47
2021/03/29 10:23:27;;;;;;;3.80;1.70;;;20.80;41.70;;;;;;5090137;28;20036;-50
2021/03/29 10:26:28;;;;;;;5.50;1.42;;;20.80;41.80;;;;;;5091824;28;20032;-48
2021/03/29 10:28:57;;;;;;;4.28;1.30;;;20.80;41.80;;;;;;5084886;28;20041;-47
2021/03/29 10:31:23;;;;;;;3.75;1.55;;;20.90;42.10;;;;;;5077750;28;20434;-49
2021/03/29 10:33:50;;;;;;;4.63;2.50;;;20.90;42.20;;;;;;5078798;28;20052;-52
2021/03/29 10:36:17;;;;;;;2.75;1.42;;;20.90;42.20;;;;;;5071306;28;20032;-51
2021/03/29 10:38:43;;;;;;;3.75;1.27;;;20.90;42.40;;;;;;5082274;28;20028;-49
2021/03/29 10:41:09;;;;;;;3.75;1.52;;;20.90;42.30;;;;;;5075356;28;20095;-48
2021/03/29 10:43:35;;;;;;;1.90;1.17;;;20.90;42.90;;;;;;5084645;28;20024;-52
2021/03/29 10:46:01;;;;;;;2.40;1.33;;;21.00;43.00;;;;;;5083404;28;20154;-52
2021/03/29 10:48:27;;;;;;;3.83;1.30;;;21.00;43.00;;;;;;5072810;28;20520;-50
2021/03/29 10:50:53;;;;;;;2.50;1.20;;;21.00;43.00;;;;;;5075619;28;20025;-53
2021/03/29 10:53:18;;;;;;;2.22;1.17;;;21.00;43.00;;;;;;5074567;28;20024;-52
2021/03/29 10:55:44;;;;;;;1.67;1.10;;;21.10;43.20;;;;;;5086425;28;20127;-52
2021/03/29 10:58:10;;;;;;;3.22;1.48;;;21.10;43.00;;;;;;5082865;28;20478;-53
2021/03/29 11:00:35;;;;;;;3.55;1.33;;;21.10;42.90;;;;;;5077048;28;20024;-50
2021/03/29 11:03:01;;;;;;;2.42;1.30;;;21.10;43.20;;;;;;5093570;28;20419;-54
2021/03/29 11:05:26;;;;;;;2.63;1.48;;;21.10;43.20;;;;;;5094180;28;20548;-52
2021/03/29 11:07:52;;;;;;;5.35;1.50;;;21.10;43.10;;;;;;5092597;28;20473;-53
2021/03/29 11:10:18;;;;;;;2.83;1.30;;;21.10;43.10;;;;;;5093292;28;20101;-51
2021/03/29 11:12:44;;;;;;;3.65;1.60;;;21.10;43.10;;;;;;5095270;28;20032;-54
2021/03/29 11:15:10;;;;;;;3.08;1.38;;;21.10;43.00;;;;;;5094758;28;20040;-54
2021/03/29 11:17:38;;;;;;;4.05;1.42;;;21.10;42.90;;;;;;5092753;28;20032;-54
2021/03/29 11:20:05;;;;;;;1.85;1.10;;;21.20;42.90;;;;;;5074656;28;20028;-54
2021/03/29 11:22:31;;;;;;;3.10;1.30;;;21.10;42.80;;;;;;5072972;28;20089;-52
2021/03/29 11:24:57;;;;;;;2.67;0.93;;;21.10;42.90;;;;;;5078620;28;20032;-53
2021/03/29 11:27:22;;;;;;;2.97;1.33;;;21.10;42.80;;;;;;5074956;28;20435;-54
2021/03/29 11:29:48;;;;;;;1.92;1.13;;;21.10;42.80;;;;;;5075465;28;20115;-52
2021/03/29 11:32:14;;;;;;;2.20;1.10;;;21.10;42.80;;;;;;5091689;28;20085;-54
2021/03/29 11:34:39;;;;;;;1.80;1.05;;;21.10;42.80;;;;;;5094375;28;20054;-54
2021/03/29 11:37:05;;;;;;;2.95;1.20;;;21.10;42.90;;;;;;5095156;28;20478;-53
2021/03/29 11:39:31;;;;;;;2.67;1.30;;;21.10;42.80;;;;;;5082285;28;20120;-54
2021/03/29 11:41:57;;;;;;;2.25;1.27;;;21.10;42.70;;;;;;5074298;28;20473;-53
2021/03/29 11:44:22;;;;;;;2.75;1.50;;;21.10;42.70;;;;;;5073801;28;20078;-54
2021/03/29 11:46:48;;;;;;;4.55;1.52;;;21.10;43.30;;;;;;5076697;28;20033;-52
2021/03/29 11:49:14;;;;;;;3.90;1.27;;;21.10;42.60;;;;;;5075402;28;20028;-55
2021/03/29 11:51:39;;;;;;;2.65;1.30;;;21.10;42.60;;;;;;5094045;28;20032;-51
2021/03/29 11:54:05;;;;;;;2.40;1.17;;;21.10;42.60;;;;;;5094318;28;20419;-53
2021/03/29 11:56:38;;;;;;;2.53;1.10;;;21.10;42.60;;;;;;5093353;28;20433;-48
2021/03/29 11:59:05;;;;;;;2.00;1.00;;;21.10;43.20;;;;;;5090847;28;20028;-54
2021/03/29 12:04:09;;;;;;;2.88;1.30;;;21.10;42.60;;;;;;5075464;28;20044;-52
2021/03/29 12:06:52;;;;;;;2.08;1.20;;;21.10;42.30;;;;;;5074460;28;20112;-53
2021/03/29 12:09:31;;;;;;;2.72;1.30;;;21.10;42.50;;;;;;5073359;28;20048;-54
2021/03/29 12:14:29;;;;;;;1.52;0.95;;;21.10;43.00;;;;;;5073512;28;20048;-51
2021/03/29 12:16:55;;;;;;;2.50;1.33;;;21.10;43.10;;;;;;5087756;28;20028;-55
2021/03/29 12:19:21;;;;;;;2.72;1.10;;;21.10;43.10;;;;;;5077232;28;20024;-54
2021/03/29 12:21:55;;;;;;;2.63;1.20;;;21.10;43.10;;;;;;5073805;28;20031;-55
2021/03/29 12:24:23;;;;;;;4.03;1.40;;;21.10;43.00;;;;;;5074125;28;20074;-54
2021/03/29 12:26:49;;;;;;;2.20;1.30;;;21.10;43.00;;;;;;5085687;28;20051;-50
2021/03/29 12:29:22;;;;;;;2.63;1.10;;;21.10;42.80;;;;;;5093812;28;20038;-56
2021/03/29 12:31:49;;;;;;;2.53;1.17;;;21.10;42.90;;;;;;5091989;28;20067;-54
2021/03/29 12:34:15;;;;;;;1.67;1.05;;;21.10;42.80;;;;;;5093810;28;20032;-50
2021/03/29 12:36:51;;;;;;;2.45;1.23;;;21.10;42.80;;;;;;5093156;28;20146;-52
2021/03/29 12:42:18;;;;;;;2.13;1.20;;;21.10;42.60;;;;;;5040053;28;20036;-50
2021/03/29 12:44:44;;;;;;;2.65;1.15;;;21.10;42.60;;;;;;5089223;28;20068;-46
2021/03/29 12:47:11;;;;;;;3.35;0.98;;;21.10;42.50;;;;;;5080710;28;20033;-55
2021/03/29 12:49:37;;;;;;;1.55;1.10;;;21.10;42.60;;;;;;5072820;28;20244;-55
2021/03/29 12:52:04;;;;;;;1.45;1.00;;;21.10;42.50;;;;;;5073063;28;20130;-53
2021/03/29 12:54:34;;;;;;;1.98;0.85;;;21.10;42.40;;;;;;5072375;28;20345;-56
2021/03/29 12:57:00;;;;;;;3.38;1.27;;;21.10;42.40;;;;;;5088341;28;20089;-53
2021/03/29 12:59:31;;;;;;;2.47;1.02;;;21.10;42.40;;;;;;5087338;28;20032;-55
2021/03/29 13:01:58;;;;;;;1.95;1.05;;;21.10;42.40;;;;;;5072358;28;20385;-54
2021/03/29 13:04:28;;;;;;;1.52;1.00;;;21.10;42.40;;;;;;5092208;28;20039;-54
2021/03/29 13:07:10;;;;;;;1.80;1.02;;;21.10;42.40;;;;;;5091927;28;20089;-54
2021/03/29 13:09:44;;;;;;;;;;;21.20;42.30;;;;;;5090417;28;20056;-54
2021/03/29 13:12:11;;;;;;;3.15;1.10;;;21.10;42.30;;;;;;5077410;28;19918;-53